Time;durP1;ratioP1;P1;durP2;ratioP2;P2;SDS_P1;SDS_P2;PMS_P1;PMS_P2;Temp;Humidity;BMP_temperature;BMP_pressure;BME280_temperature;BME280_humidity;BME280_pressure;Samples;Min_cycle;Max_cycle;Signal;HPM_P1;HPM_P2
2023/01/12 00:02:19;;;;;;;10.45;3.60;;;7.60;99.90;;;;;;4997998;28;20376;-60
2023/01/12 00:05:05;;;;;;;13.98;3.53;;;7.60;99.90;;;;;;4998422;28;20037;-56
2023/01/12 00:07:51;;;;;;;12.02;3.90;;;7.60;99.90;;;;;;5018449;28;20494;-51
2023/01/12 00:10:37;;;;;;;10.80;4.03;;;7.70;99.90;;;;;;5002298;28;20529;-54
2023/01/12 00:13:23;;;;;;;13.93;4.65;;;7.80;99.90;;;;;;4998171;28;20045;-54
2023/01/12 00:16:33;;;;;;;13.98;3.53;;;7.80;99.90;;;;;;5013517;28;20084;-52
2023/01/12 00:19:21;;;;;;;14.73;3.85;;;7.70;99.90;;;;;;4997082;28;20512;-51
2023/01/12 00:22:10;;;;;;;14.40;3.42;;;7.70;99.90;;;;;;4998120;28;20034;-52
2023/01/12 00:24:56;;;;;;;11.27;3.25;;;7.70;99.90;;;;;;5023418;28;20140;-52
2023/01/12 00:27:42;;;;;;;11.07;3.22;;;7.70;99.90;;;;;;5031468;28;20088;-50
2023/01/12 00:30:30;;;;;;;9.55;3.47;;;7.80;99.90;;;;;;4993459;28;20121;-53
2023/01/12 00:33:17;;;;;;;7.25;3.30;;;7.90;99.90;;;;;;4966025;28;20029;-50
2023/01/12 00:36:05;;;;;;;10.35;3.92;;;7.90;99.90;;;;;;5019275;28;20025;-56
2023/01/12 00:38:51;;;;;;;9.90;3.78;;;7.90;99.90;;;;;;4993996;28;20073;-52
2023/01/12 00:47:48;;;;;;;10.57;2.97;;;8.10;99.90;;;;;;5011585;28;20506;-53
2023/01/12 00:50:34;;;;;;;9.32;3.40;;;8.20;99.90;;;;;;4997660;28;20084;-58
2023/01/12 00:53:20;;;;;;;10.35;3.00;;;8.20;99.90;;;;;;5005445;28;20122;-54
2023/01/12 00:56:06;;;;;;;9.60;3.42;;;8.20;99.90;;;;;;5017019;28;20410;-56
2023/01/12 00:58:52;;;;;;;9.13;3.72;;;8.20;99.90;;;;;;5029432;28;20497;-53
2023/01/12 01:01:38;;;;;;;10.20;3.53;;;8.20;99.90;;;;;;4977612;28;20030;-55
2023/01/12 01:04:24;;;;;;;8.00;2.97;;;8.10;99.90;;;;;;5001866;28;20029;-58
2023/01/12 01:07:12;;;;;;;11.10;3.67;;;8.10;99.90;;;;;;5029858;28;20091;-56
2023/01/12 01:09:58;;;;;;;8.80;3.35;;;8.10;99.90;;;;;;5023391;28;20033;-56
2023/01/12 01:12:44;;;;;;;7.97;2.95;;;8.10;99.90;;;;;;5004122;28;20040;-55
2023/01/12 01:15:30;;;;;;;8.88;2.85;;;8.10;99.90;;;;;;5016247;28;20033;-56
2023/01/12 01:18:16;;;;;;;10.02;3.72;;;8.00;99.90;;;;;;5005758;28;20517;-57
2023/01/12 01:21:03;;;;;;;12.80;3.40;;;8.00;99.90;;;;;;5012461;28;20034;-57
2023/01/12 01:23:49;;;;;;;7.72;3.13;;;7.90;99.90;;;;;;5025709;28;20026;-53
2023/01/12 01:26:35;;;;;;;13.73;3.33;;;7.90;99.90;;;;;;5025732;28;20389;-56
2023/01/12 01:29:21;;;;;;;10.18;3.63;;;8.00;99.90;;;;;;5012038;28;20037;-56
2023/01/12 01:32:07;;;;;;;9.40;3.20;;;7.90;99.90;;;;;;5017248;28;20057;-57
2023/01/12 01:34:53;;;;;;;9.10;3.30;;;8.00;99.90;;;;;;5030024;28;20025;-53
2023/01/12 01:37:39;;;;;;;11.85;3.25;;;8.00;99.90;;;;;;5029474;28;20494;-53
2023/01/12 01:40:25;;;;;;;7.93;3.33;;;8.00;99.90;;;;;;5030488;28;20076;-49
2023/01/12 01:43:14;;;;;;;11.45;3.25;;;8.00;99.90;;;;;;5031519;28;20620;-48
2023/01/12 01:46:08;;;;;;;12.55;3.40;;;8.00;99.90;;;;;;5014878;28;20113;-51
2023/01/12 01:48:55;;;;;;;11.70;3.03;;;8.00;99.90;;;;;;5030113;28;20025;-52
2023/01/12 01:51:42;;;;;;;8.98;3.00;;;8.00;99.90;;;;;;4992356;28;20077;-54
2023/01/12 01:54:34;;;;;;;7.13;3.63;;;8.00;99.90;;;;;;4997373;28;20049;-56
2023/01/12 01:57:25;;;;;;;13.35;3.63;;;8.00;99.90;;;;;;5015041;28;20125;-53
2023/01/12 02:00:12;;;;;;;16.15;3.97;;;7.90;99.90;;;;;;5018494;28;20025;-52
2023/01/12 02:03:03;;;;;;;10.23;3.15;;;7.90;99.90;;;;;;5031068;28;20037;-55
2023/01/12 02:05:50;;;;;;;11.38;3.50;;;8.00;99.90;;;;;;5018127;28;20153;-56
2023/01/12 02:08:54;;;;;;;10.32;3.10;;;8.10;99.90;;;;;;5012221;28;20029;-56
2023/01/12 02:18:09;;;;;;;8.13;3.15;;;8.00;99.90;;;;;;5018510;28;20026;-56
2023/01/12 02:20:58;;;;;;;6.72;3.17;;;8.00;99.90;;;;;;5028504;28;20033;-57
2023/01/12 02:23:52;;;;;;;9.93;3.00;;;7.90;99.90;;;;;;5035461;28;20090;-50
2023/01/12 02:26:44;;;;;;;8.23;3.50;;;7.90;99.90;;;;;;5021607;28;20667;-54
2023/01/12 02:29:48;;;;;;;11.95;3.55;;;7.90;99.90;;;;;;5035984;28;20606;-49
2023/01/12 02:32:59;;;;;;;10.32;3.30;;;7.80;99.90;;;;;;5036248;28;20538;-55
2023/01/12 02:36:33;;;;;;;9.23;3.50;;;7.80;99.90;;;;;;5016981;28;20026;-58
2023/01/12 02:39:41;;;;;;;7.82;4.03;;;7.80;99.90;;;;;;4993887;28;20037;-52
2023/01/12 02:42:43;;;;;;;8.70;3.40;;;7.80;99.90;;;;;;5020099;28;20490;-53
2023/01/12 02:45:53;;;;;;;9.38;3.38;;;7.90;99.90;;;;;;5016199;28;20045;-55
2023/01/12 02:49:02;;;;;;;8.20;2.97;;;7.80;99.90;;;;;;5028181;28;20047;-55
2023/01/12 02:51:54;;;;;;;8.05;3.15;;;7.80;99.90;;;;;;5036123;28;20539;-56
2023/01/12 02:54:43;;;;;;;10.63;3.60;;;7.80;99.90;;;;;;5036606;28;20045;-56
2023/01/12 02:57:31;;;;;;;8.20;2.72;;;7.80;99.90;;;;;;5025287;28;20025;-53
2023/01/12 03:00:17;;;;;;;7.40;3.13;;;7.80;99.90;;;;;;5003396;28;20053;-54
2023/01/12 03:03:05;;;;;;;10.45;3.38;;;7.80;99.90;;;;;;5033014;28;20520;-53
2023/01/12 03:05:57;;;;;;;9.77;3.05;;;7.90;99.90;;;;;;5029361;28;20046;-53
2023/01/12 03:08:46;;;;;;;13.48;3.58;;;8.00;99.90;;;;;;5017803;28;20041;-56
2023/01/12 03:11:34;;;;;;;10.23;3.60;;;8.10;99.90;;;;;;5028606;28;20041;-54
2023/01/12 03:14:21;;;;;;;12.13;3.28;;;8.20;99.90;;;;;;5036044;28;20030;-52
2023/01/12 03:17:15;;;;;;;7.05;2.63;;;8.20;99.90;;;;;;5019619;28;20026;-53
2023/01/12 03:20:06;;;;;;;10.95;3.58;;;8.20;99.90;;;;;;5016533;28;20033;-51
2023/01/12 03:23:04;;;;;;;11.30;3.70;;;8.20;99.90;;;;;;5036130;28;20413;-51
2023/01/12 03:25:53;;;;;;;9.55;3.10;;;8.20;99.90;;;;;;4999821;28;20530;-53
2023/01/12 03:28:45;;;;;;;14.35;3.45;;;8.20;99.90;;;;;;4999510;28;20037;-54
2023/01/12 03:31:31;;;;;;;9.55;3.20;;;8.20;99.90;;;;;;5038467;28;20037;-54
2023/01/12 03:34:17;;;;;;;12.82;3.53;;;8.30;99.90;;;;;;5034446;28;20461;-53
2023/01/12 03:37:20;;;;;;;8.55;3.10;;;8.30;99.90;;;;;;5033945;28;20045;-54
2023/01/12 03:40:13;;;;;;;14.15;3.85;;;8.30;99.90;;;;;;5015183;28;20018;-52
2023/01/12 03:43:22;;;;;;;7.00;3.17;;;8.30;99.90;;;;;;5018360;28;20044;-54
2023/01/12 03:46:18;;;;;;;7.15;3.25;;;8.40;99.90;;;;;;5032319;28;20069;-49
2023/01/12 03:49:11;;;;;;;9.05;3.03;;;8.30;99.90;;;;;;5010966;28;20022;-54
2023/01/12 03:52:00;;;;;;;10.90;3.13;;;8.30;99.90;;;;;;5019732;28;20503;-50
2023/01/12 03:54:47;;;;;;;7.47;3.20;;;8.30;99.90;;;;;;5030883;28;20018;-52
2023/01/12 03:57:34;;;;;;;10.23;3.30;;;8.30;99.90;;;;;;5020839;28;20030;-55
2023/01/12 04:00:23;;;;;;;9.63;3.15;;;8.30;99.90;;;;;;5013866;28;20022;-53
2023/01/12 04:03:14;;;;;;;9.13;3.70;;;8.30;99.90;;;;;;5029183;28;20061;-53
2023/01/12 04:05:59;;;;;;;11.60;3.50;;;8.30;99.90;;;;;;5032949;28;20112;-52
2023/01/12 04:08:45;;;;;;;6.82;3.20;;;8.30;99.90;;;;;;4993607;28;20046;-50
2023/01/12 04:14:44;;;;;;;9.95;3.17;;;8.30;99.90;;;;;;5014315;28;20054;-60
2023/01/12 04:17:30;;;;;;;11.63;3.00;;;8.30;99.90;;;;;;5032506;28;20399;-52
2023/01/12 04:20:16;;;;;;;10.82;3.45;;;8.30;99.90;;;;;;5032304;28;20528;-57
2023/01/12 04:23:02;;;;;;;12.38;3.90;;;8.30;99.90;;;;;;5012810;28;20431;-55
2023/01/12 04:25:48;;;;;;;9.45;4.10;;;8.40;99.90;;;;;;5016075;28;20681;-55
2023/01/12 04:28:34;;;;;;;10.07;3.58;;;8.30;99.90;;;;;;5031671;28;20072;-53
2023/01/12 04:31:20;;;;;;;9.55;3.75;;;8.40;99.90;;;;;;5012244;28;20057;-55
2023/01/12 04:34:06;;;;;;;11.18;3.72;;;8.30;99.90;;;;;;5012426;28;20830;-52
2023/01/12 04:36:52;;;;;;;7.63;3.38;;;8.40;99.90;;;;;;4997914;28;20054;-49
2023/01/12 04:39:38;;;;;;;16.58;3.75;;;8.50;99.90;;;;;;5015891;28;20036;-52
2023/01/12 04:45:31;;;;;;;10.75;3.05;;;8.40;99.90;;;;;;4993340;28;20057;-54
2023/01/12 04:48:18;;;;;;;6.57;2.60;;;8.40;99.90;;;;;;4995871;28;20046;-55
2023/01/12 04:51:04;;;;;;;8.73;3.00;;;8.40;99.90;;;;;;5032865;28;20029;-52
2023/01/12 04:53:50;;;;;;;8.15;2.75;;;8.50;99.90;;;;;;5031142;28;20161;-52
2023/01/12 04:56:36;;;;;;;6.63;2.80;;;8.50;99.90;;;;;;5017486;28;20021;-56
2023/01/12 04:59:22;;;;;;;7.82;3.17;;;8.50;99.90;;;;;;5031592;28;20115;-53
2023/01/12 05:02:08;;;;;;;7.25;3.03;;;8.50;99.90;;;;;;5027171;28;20483;-53
2023/01/12 05:04:54;;;;;;;9.48;3.22;;;8.50;99.90;;;;;;5010770;28;20064;-56
2023/01/12 05:10:21;;;;;;;8.48;3.03;;;8.60;99.90;;;;;;5012136;28;20561;-53
2023/01/12 05:10:53;;;;;;;14.40;3.83;;;8.60;99.90;;;;;;5024007;28;20037;-53
2023/01/12 05:13:39;;;;;;;4.97;2.60;;;8.60;99.90;;;;;;5032604;28;20029;-53
2023/01/12 05:16:26;;;;;;;5.55;2.92;;;8.60;99.90;;;;;;5014770;28;20026;-54
2023/01/12 05:19:12;;;;;;;6.38;3.08;;;8.60;99.90;;;;;;5011327;28;20025;-51
2023/01/12 05:21:58;;;;;;;8.57;2.83;;;8.70;99.90;;;;;;4997403;28;20034;-52
2023/01/12 05:24:44;;;;;;;6.25;2.80;;;8.70;99.90;;;;;;5013203;28;20064;-52
2023/01/12 05:27:30;;;;;;;7.05;2.92;;;8.70;99.90;;;;;;5029775;28;20034;-53
2023/01/12 05:30:16;;;;;;;6.95;3.00;;;8.70;99.90;;;;;;4976803;28;20410;-53
2023/01/12 05:33:02;;;;;;;9.98;2.70;;;8.80;99.90;;;;;;4980954;28;20038;-52
2023/01/12 05:35:47;;;;;;;4.80;2.70;;;8.80;99.90;;;;;;5003851;28;20061;-56
2023/01/12 05:38:34;;;;;;;6.93;3.03;;;8.70;99.90;;;;;;5025852;28;20033;-55
2023/01/12 05:41:21;;;;;;;7.97;3.08;;;8.70;99.90;;;;;;5029349;28;20029;-53
2023/01/12 05:44:07;;;;;;;10.43;3.63;;;8.70;99.90;;;;;;4979342;28;20081;-52
2023/01/12 05:46:53;;;;;;;7.22;2.90;;;8.70;99.90;;;;;;4997900;28;20037;-56
2023/01/12 05:49:39;;;;;;;7.95;2.80;;;8.80;99.90;;;;;;5012089;28;20097;-54
2023/01/12 05:52:25;;;;;;;8.60;2.75;;;8.80;99.90;;;;;;5020356;28;20418;-51
2023/01/12 05:55:11;;;;;;;6.32;2.60;;;8.80;99.90;;;;;;5031333;28;20144;-56
2023/01/12 05:57:58;;;;;;;6.05;2.33;;;8.80;99.90;;;;;;5015352;28;20112;-54
2023/01/12 06:00:45;;;;;;;4.97;2.70;;;8.80;99.90;;;;;;5025027;28;20108;-54
2023/01/12 06:03:31;;;;;;;6.55;2.83;;;8.70;99.90;;;;;;5010962;28;20041;-51
2023/01/12 06:06:18;;;;;;;6.15;2.63;;;8.80;99.90;;;;;;5018980;28;20030;-52
2023/01/12 06:09:04;;;;;;;6.90;3.17;;;8.70;99.90;;;;;;5016254;28;20021;-57
2023/01/12 06:14:55;;;;;;;7.43;2.60;;;8.70;99.90;;;;;;5012392;28;20026;-50
2023/01/12 06:17:40;;;;;;;6.90;2.63;;;8.70;99.90;;;;;;5030392;28;20136;-56
2023/01/12 06:20:26;;;;;;;7.35;3.03;;;8.70;99.90;;;;;;5030812;28;20109;-47
2023/01/12 06:23:12;;;;;;;4.97;2.42;;;8.70;99.90;;;;;;5029879;28;20057;-47
2023/01/12 06:26:03;;;;;;;7.25;2.78;;;8.60;99.90;;;;;;5013738;28;20113;-48
2023/01/12 06:28:49;;;;;;;6.75;2.53;;;8.60;99.90;;;;;;5011908;28;20122;-53
2023/01/12 06:31:37;;;;;;;7.57;2.95;;;8.50;99.90;;;;;;5010046;28;20061;-53
2023/01/12 06:34:23;;;;;;;8.27;2.80;;;8.50;99.90;;;;;;5012151;28;20064;-52
2023/01/12 06:37:10;;;;;;;5.85;2.55;;;8.50;99.90;;;;;;5026545;28;20493;-49
2023/01/12 06:39:56;;;;;;;6.85;2.67;;;8.60;99.90;;;;;;5015474;28;20030;-55
2023/01/12 06:42:42;;;;;;;7.53;3.10;;;8.60;99.90;;;;;;5030599;28;20042;-52
2023/01/12 06:45:28;;;;;;;9.07;3.00;;;8.60;99.90;;;;;;5028827;28;20030;-52
2023/01/12 06:48:14;;;;;;;4.82;2.50;;;8.60;99.90;;;;;;5028477;28;20114;-52
2023/01/12 06:51:01;;;;;;;10.55;3.08;;;8.60;99.90;;;;;;5015492;28;20038;-54
2023/01/12 06:53:47;;;;;;;9.35;3.35;;;8.60;99.90;;;;;;5010444;28;20041;-54
2023/01/12 06:56:33;;;;;;;8.40;3.45;;;8.60;99.90;;;;;;5009368;28;20026;-52
2023/01/12 06:59:19;;;;;;;8.85;3.60;;;8.60;99.90;;;;;;5029140;28;20025;-53
2023/01/12 07:02:05;;;;;;;7.57;3.47;;;8.60;99.90;;;;;;5014623;28;20120;-55
2023/01/12 07:04:50;;;;;;;7.72;3.40;;;8.60;99.90;;;;;;5033959;28;20041;-56
2023/01/12 07:07:36;;;;;;;8.80;3.30;;;8.60;99.90;;;;;;4994461;28;20124;-50
2023/01/12 07:10:22;;;;;;;7.03;2.85;;;8.60;99.90;;;;;;5000686;28;20026;-52
2023/01/12 07:13:08;;;;;;;10.50;2.92;;;8.60;99.90;;;;;;5026271;28;20046;-50
2023/01/12 07:15:58;;;;;;;7.15;2.85;;;8.60;99.90;;;;;;5026106;28;20065;-54
2023/01/12 07:18:45;;;;;;;8.05;3.15;;;8.60;99.90;;;;;;5033175;28;20029;-49
2023/01/12 07:21:31;;;;;;;9.52;4.65;;;8.70;99.90;;;;;;5018466;28;20123;-52
2023/01/12 07:24:17;;;;;;;10.30;4.20;;;8.70;99.90;;;;;;5013480;28;20038;-54
2023/01/12 07:27:04;;;;;;;12.57;3.20;;;8.70;99.90;;;;;;5011659;28;20490;-55
2023/01/12 07:29:50;;;;;;;7.53;2.78;;;8.70;99.90;;;;;;5013964;28;20049;-56
2023/01/12 07:32:36;;;;;;;6.35;3.20;;;8.70;99.90;;;;;;4991930;28;20026;-51
2023/01/12 07:35:23;;;;;;;11.85;3.42;;;8.70;99.90;;;;;;5018097;28;20058;-55
2023/01/12 07:38:09;;;;;;;7.03;2.88;;;8.80;99.90;;;;;;5006110;28;20080;-54
2023/01/12 07:41:03;;;;;;;9.27;3.83;;;8.80;99.90;;;;;;5016409;28;20030;-48
2023/01/12 07:43:49;;;;;;;12.35;3.35;;;8.80;99.90;;;;;;5035521;28;20029;-52
2023/01/12 07:46:35;;;;;;;8.13;3.35;;;8.80;99.90;;;;;;5031970;28;20113;-55
2023/01/12 07:49:21;;;;;;;9.02;4.10;;;8.80;99.90;;;;;;5031830;28;20593;-57
2023/01/12 07:52:09;;;;;;;11.65;3.40;;;8.80;99.90;;;;;;5010999;28;20406;-55
2023/01/12 07:54:55;;;;;;;9.60;3.45;;;8.80;99.90;;;;;;5011581;28;20026;-57
2023/01/12 07:58:16;;;;;;;10.65;3.63;;;8.90;99.90;;;;;;5013300;28;20057;-54
2023/01/12 08:01:02;;;;;;;7.97;3.20;;;8.90;99.90;;;;;;4959087;28;20523;-56
2023/01/12 08:03:48;;;;;;;11.75;3.85;;;8.90;99.90;;;;;;5033113;28;20053;-54
2023/01/12 08:06:35;;;;;;;5.70;2.80;;;9.00;99.90;;;;;;4994240;28;20046;-54
2023/01/12 08:09:20;;;;;;;11.27;4.20;;;9.00;99.90;;;;;;5031633;28;20061;-55
2023/01/12 08:12:06;;;;;;;10.63;4.03;;;8.90;99.90;;;;;;5023356;28;20096;-54
2023/01/12 08:14:52;;;;;;;9.00;3.38;;;9.10;99.90;;;;;;5031537;28;20040;-56
2023/01/12 08:17:55;;;;;;;8.95;4.00;;;9.00;99.90;;;;;;5027092;28;20018;-57
2023/01/12 08:20:41;;;;;;;7.32;3.50;;;9.00;99.90;;;;;;4994551;28;20027;-56
2023/01/12 08:23:34;;;;;;;5.65;3.15;;;9.00;99.90;;;;;;4992827;28;20031;-54
2023/01/12 08:26:26;;;;;;;11.20;3.05;;;9.00;99.90;;;;;;4991830;28;20085;-55
2023/01/12 08:29:22;;;;;;;8.85;3.40;;;9.10;99.90;;;;;;4993782;28;20022;-54
2023/01/12 08:32:10;;;;;;;10.40;3.55;;;9.10;99.90;;;;;;4991913;28;20118;-55
2023/01/12 08:34:59;;;;;;;10.27;3.63;;;9.10;99.90;;;;;;4991838;28;20034;-55
2023/01/12 08:37:45;;;;;;;9.30;3.63;;;9.20;99.90;;;;;;4993198;28;20026;-55
2023/01/12 08:46:51;;;;;;;7.13;2.88;;;9.10;99.90;;;;;;4982864;28;20030;-56
2023/01/12 08:49:37;;;;;;;11.02;3.03;;;9.20;99.90;;;;;;4993603;28;20030;-56
2023/01/12 08:52:24;;;;;;;12.82;2.95;;;9.20;99.90;;;;;;5011786;28;20437;-50
2023/01/12 08:55:10;;;;;;;7.05;2.90;;;9.20;99.90;;;;;;5011694;28;20391;-53
2023/01/12 08:57:56;;;;;;;7.95;3.47;;;9.30;99.90;;;;;;5011456;28;20018;-55
2023/01/12 09:00:42;;;;;;;9.57;2.92;;;9.30;99.90;;;;;;5011343;28;20034;-55
2023/01/12 09:03:27;;;;;;;8.73;3.33;;;9.30;99.90;;;;;;4996842;28;20061;-51
2023/01/12 09:06:20;;;;;;;10.20;2.90;;;9.30;99.90;;;;;;5011264;28;20034;-55
2023/01/12 09:09:09;;;;;;;10.98;2.80;;;9.30;99.90;;;;;;5011231;28;20018;-55
2023/01/12 09:11:55;;;;;;;9.43;3.00;;;9.20;99.90;;;;;;5012047;28;20494;-54
2023/01/12 09:14:41;;;;;;;10.98;3.50;;;9.30;99.90;;;;;;5011224;28;20033;-56
2023/01/12 09:17:27;;;;;;;9.77;3.10;;;9.30;99.90;;;;;;5011997;28;20026;-56
2023/01/12 09:20:14;;;;;;;11.77;5.30;;;9.30;99.90;;;;;;4997442;28;20026;-56
2023/01/12 09:23:02;;;;;;;10.35;3.63;;;9.30;99.90;;;;;;5012045;28;20080;-54
2023/01/12 09:25:48;;;;;;;10.38;2.83;;;9.30;99.90;;;;;;5023399;28;20030;-49
2023/01/12 09:28:35;;;;;;;7.55;3.08;;;9.30;99.90;;;;;;5017017;28;20037;-58
2023/01/12 09:31:22;;;;;;;7.18;3.00;;;9.30;99.90;;;;;;5015968;28;20057;-52
2023/01/12 09:34:08;;;;;;;7.90;3.10;;;9.30;99.90;;;;;;5029841;28;20033;-57
2023/01/12 09:36:55;;;;;;;9.43;2.97;;;9.30;99.90;;;;;;5030877;28;20028;-56
2023/01/12 09:39:41;;;;;;;7.05;2.88;;;9.30;99.90;;;;;;5030749;28;20060;-54
2023/01/12 09:48:36;;;;;;;10.38;3.05;;;9.40;99.90;;;;;;5023055;28;20033;-50
2023/01/12 09:51:35;;;;;;;9.98;3.33;;;9.40;99.90;;;;;;5026001;28;20033;-54
2023/01/12 09:54:21;;;;;;;10.05;3.15;;;9.40;99.90;;;;;;5028559;28;20029;-50
2023/01/12 09:57:57;;;;;;;6.30;3.00;;;9.50;99.90;;;;;;5021058;28;20030;-53
2023/01/12 10:00:49;;;;;;;8.25;3.92;;;9.50;99.90;;;;;;4967928;28;20022;-56
2023/01/12 10:03:40;;;;;;;9.65;3.05;;;9.50;99.90;;;;;;4992621;28;20023;-54
2023/01/12 10:06:26;;;;;;;8.63;2.92;;;9.50;99.90;;;;;;4990931;28;20054;-55
2023/01/12 10:09:17;;;;;;;7.28;2.95;;;9.50;99.90;;;;;;4990382;28;20034;-52
2023/01/12 10:12:10;;;;;;;7.43;2.67;;;9.50;99.90;;;;;;4990651;28;20034;-53
2023/01/12 10:15:14;;;;;;;5.65;2.60;;;9.50;99.90;;;;;;4990309;28;20041;-56
2023/01/12 10:18:32;;;;;;;7.28;3.00;;;9.50;99.90;;;;;;4990696;28;20517;-52
2023/01/12 10:21:22;;;;;;;6.40;2.97;;;9.50;99.90;;;;;;4990745;28;20033;-58
2023/01/12 10:24:11;;;;;;;3.42;2.40;;;9.50;99.90;;;;;;4990925;28;20491;-51
2023/01/12 10:27:03;;;;;;;6.63;2.60;;;9.50;99.90;;;;;;4990784;28;20057;-52
2023/01/12 10:29:51;;;;;;;5.15;2.50;;;9.50;99.90;;;;;;4991600;28;20068;-56
2023/01/12 10:32:37;;;;;;;4.72;2.30;;;9.50;99.90;;;;;;5002655;28;20030;-53
2023/01/12 10:35:24;;;;;;;4.53;2.58;;;9.50;99.90;;;;;;4991215;28;20423;-55
2023/01/12 10:38:33;;;;;;;6.53;2.45;;;9.50;99.90;;;;;;4993170;28;20027;-55
2023/01/12 10:41:25;;;;;;;6.68;2.42;;;9.60;99.90;;;;;;4995231;28;20092;-59
2023/01/12 10:44:15;;;;;;;6.65;2.15;;;9.50;99.90;;;;;;4995229;28;20637;-57
2023/01/12 10:47:08;;;;;;;3.20;2.10;;;9.50;99.90;;;;;;5004187;28;20351;-58
2023/01/12 10:50:35;;;;;;;2.78;1.75;;;9.50;99.90;;;;;;5013991;28;20065;-55
2023/01/12 10:53:25;;;;;;;3.25;2.05;;;9.50;99.90;;;;;;5015370;28;20473;-56
2023/01/12 10:56:23;;;;;;;3.15;1.88;;;9.50;99.90;;;;;;5013647;28;20045;-52
2023/01/12 10:59:12;;;;;;;2.45;1.90;;;9.50;99.90;;;;;;5014647;28;20105;-54
2023/01/12 11:02:05;;;;;;;3.65;1.90;;;9.50;99.90;;;;;;5014770;28;20022;-55
2023/01/12 11:04:52;;;;;;;4.47;1.80;;;9.50;99.90;;;;;;5013083;28;20034;-54
2023/01/12 11:07:48;;;;;;;2.13;1.50;;;9.50;99.90;;;;;;5013333;28;20029;-53
2023/01/12 11:10:37;;;;;;;;;;;9.50;99.90;;;;;;5014438;28;20031;-55
2023/01/12 11:13:36;;;;;;;3.10;1.60;;;9.50;99.90;;;;;;5013539;28;19920;-54
2023/01/12 11:16:44;;;;;;;2.95;1.98;;;9.40;99.90;;;;;;4999463;28;20025;-50
2023/01/12 11:19:42;;;;;;;2.35;1.50;;;9.50;99.90;;;;;;5014077;28;20033;-53
2023/01/12 11:22:33;;;;;;;2.42;1.30;;;9.50;99.90;;;;;;5014369;28;20101;-50
2023/01/12 11:25:24;;;;;;;3.35;1.42;;;9.40;99.90;;;;;;5013953;28;20033;-54
2023/01/12 11:28:19;;;;;;;2.40;1.63;;;9.40;99.90;;;;;;5013642;28;20037;-52
2023/01/12 11:31:24;;;;;;;;;;;9.40;99.90;;;;;;5014166;28;20045;-54
2023/01/12 11:34:27;;;;;;;2.83;1.63;;;9.40;99.90;;;;;;5013677;28;20031;-52
2023/01/12 11:37:13;;;;;;;2.72;1.58;;;9.50;99.90;;;;;;5013905;28;20022;-56
2023/01/12 11:40:06;;;;;;;3.00;1.42;;;9.40;99.90;;;;;;4999375;28;20506;-58
2023/01/12 11:46:23;;;;;;;2.83;1.50;;;9.50;99.90;;;;;;5012845;28;20106;-55
2023/01/12 11:49:12;;;;;;;6.32;1.92;;;9.50;99.90;;;;;;5011829;28;20042;-54
2023/01/12 11:52:00;;;;;;;2.33;1.58;;;9.50;99.90;;;;;;5013546;28;20022;-51
2023/01/12 11:54:46;;;;;;;2.55;1.40;;;9.50;99.90;;;;;;5013108;28;20125;-52
2023/01/12 11:58:07;;;;;;;2.53;1.10;;;9.50;99.90;;;;;;5013474;28;20029;-53
2023/01/12 12:01:22;;;;;;;2.83;2.25;;;9.50;99.90;;;;;;5015408;28;20109;-53
2023/01/12 12:04:41;;;;;;;2.92;1.50;;;9.50;99.90;;;;;;5013290;28;20028;-54
2023/01/12 12:08:02;;;;;;;2.17;1.63;;;9.50;99.90;;;;;;5013956;28;20018;-53
2023/01/12 12:11:00;;;;;;;1.77;1.40;;;9.50;99.90;;;;;;4988085;28;20065;-49
2023/01/12 12:14:16;;;;;;;3.40;1.60;;;9.60;99.90;;;;;;5013656;28;20069;-53
2023/01/12 12:17:32;;;;;;;2.38;1.48;;;9.60;99.90;;;;;;5012333;28;20021;-52
2023/01/12 12:20:50;;;;;;;2.00;1.27;;;9.60;99.90;;;;;;5012845;28;20084;-56
2023/01/12 12:23:50;;;;;;;1.42;1.30;;;9.70;99.90;;;;;;5013132;28;20645;-58
2023/01/12 12:26:43;;;;;;;1.60;1.50;;;9.70;99.90;;;;;;4998644;28;20105;-58
2023/01/12 12:29:37;;;;;;;2.00;1.38;;;9.80;99.90;;;;;;5013299;28;20026;-55
2023/01/12 12:32:49;;;;;;;2.05;1.55;;;9.90;99.90;;;;;;5012510;28;20483;-49
2023/01/12 12:35:41;;;;;;;12.68;2.50;;;9.90;99.90;;;;;;5011623;28;20068;-56
2023/01/12 12:38:53;;;;;;;3.00;1.60;;;9.90;99.90;;;;;;5012105;28;20034;-57
2023/01/12 12:45:27;;;;;;;1.40;1.27;;;10.00;99.90;;;;;;5012462;28;20486;-53
2023/01/12 12:48:38;;;;;;;1.70;1.20;;;10.10;99.90;;;;;;4984397;28;20030;-54
2023/01/12 12:51:25;;;;;;;2.13;1.50;;;10.10;99.90;;;;;;5012486;28;20022;-56
2023/01/12 12:54:16;;;;;;;1.65;1.55;;;10.10;99.90;;;;;;4997457;28;20034;-54
2023/01/12 12:57:03;;;;;;;1.85;1.45;;;10.10;99.90;;;;;;5011156;28;20053;-51
2023/01/12 12:59:53;;;;;;;1.52;1.40;;;10.20;99.90;;;;;;5011984;28;20018;-55
2023/01/12 13:02:52;;;;;;;4.03;1.70;;;10.20;99.90;;;;;;5012846;28;20022;-55
2023/01/12 13:05:47;;;;;;;2.05;1.63;;;10.20;99.90;;;;;;5012215;28;20026;-51
2023/01/12 13:08:34;;;;;;;1.23;1.10;;;10.20;99.90;;;;;;5011640;28;20037;-56
2023/01/12 13:11:52;;;;;;;2.67;1.58;;;10.20;99.90;;;;;;5012266;28;20114;-53
2023/01/12 13:14:41;;;;;;;3.05;1.27;;;10.20;99.90;;;;;;5012340;28;20022;-56
2023/01/12 13:17:30;;;;;;;2.30;1.40;;;10.20;99.90;;;;;;5011188;28;20478;-47
2023/01/12 13:20:16;;;;;;;2.75;1.17;;;10.30;99.90;;;;;;5012696;28;20055;-57
2023/01/12 13:23:23;;;;;;;2.97;1.30;;;10.30;99.90;;;;;;5012742;28;20491;-56
2023/01/12 13:26:38;;;;;;;1.50;1.25;;;10.40;99.90;;;;;;5012470;28;20413;-53
2023/01/12 13:29:27;;;;;;;1.63;1.20;;;10.40;99.90;;;;;;4998353;28;20026;-56
2023/01/12 13:32:32;;;;;;;2.67;1.10;;;10.40;99.90;;;;;;5012972;28;20582;-58
2023/01/12 13:35:25;;;;;;;3.10;1.45;;;10.40;99.90;;;;;;5012093;28;20029;-53
2023/01/12 13:38:37;;;;;;;1.77;1.25;;;10.40;99.90;;;;;;5012283;28;20030;-54
2023/01/12 13:44:38;;;;;;;2.53;2.15;;;10.40;99.90;;;;;;5012619;28;20509;-57
2023/01/12 13:47:31;;;;;;;1.77;1.30;;;10.40;99.90;;;;;;4997551;28;20052;-58
2023/01/12 13:50:26;;;;;;;1.08;0.93;;;10.40;99.90;;;;;;5011838;28;20688;-54
2023/01/12 13:53:21;;;;;;;1.33;1.23;;;10.50;99.90;;;;;;5011372;28;20167;-47
2023/01/12 13:56:18;;;;;;;2.83;1.50;;;10.50;99.90;;;;;;5012225;28;20021;-52
2023/01/12 13:59:06;;;;;;;2.33;1.52;;;10.50;99.90;;;;;;4996789;28;20108;-51
2023/01/12 14:01:53;;;;;;;2.85;1.38;;;10.50;99.90;;;;;;5011844;28;20057;-50
2023/01/12 14:04:56;;;;;;;1.30;1.20;;;10.50;99.90;;;;;;5012046;28;20044;-53
2023/01/12 14:08:00;;;;;;;4.55;1.30;;;10.60;99.90;;;;;;5010893;28;20022;-58
2023/01/12 14:11:09;;;;;;;3.38;1.60;;;10.60;99.90;;;;;;5011414;28;20508;-55
2023/01/12 14:20:38;;;;;;;2.50;1.25;;;10.50;99.90;;;;;;5010112;28;20025;-55
2023/01/12 14:23:34;;;;;;;1.85;1.63;;;10.60;99.90;;;;;;4996581;28;20490;-53
2023/01/12 14:26:22;;;;;;;1.52;1.33;;;10.60;99.90;;;;;;5010954;28;20029;-56
2023/01/12 14:29:10;;;;;;;1.20;1.10;;;10.60;99.90;;;;;;5010338;28;20046;-52
2023/01/12 14:31:57;;;;;;;1.40;1.30;;;10.60;99.90;;;;;;5010642;28;20125;-54
2023/01/12 14:34:51;;;;;;;1.83;1.10;;;10.60;99.90;;;;;;5010831;28;20053;-54
2023/01/12 14:37:38;;;;;;;1.63;1.45;;;10.60;99.90;;;;;;5010280;28;20494;-56
2023/01/12 14:40:29;;;;;;;2.17;1.30;;;10.60;99.90;;;;;;5011168;28;20034;-58
2023/01/12 14:46:30;;;;;;;1.80;1.42;;;10.60;99.90;;;;;;4998007;28;20033;-54
2023/01/12 14:49:27;;;;;;;1.85;1.60;;;10.60;99.90;;;;;;5011352;28;20038;-55
2023/01/12 14:52:16;;;;;;;2.03;1.40;;;10.60;99.90;;;;;;5010636;28;20040;-58
2023/01/12 14:55:26;;;;;;;1.15;1.05;;;10.70;99.90;;;;;;5010768;28;20422;-57
2023/01/12 14:58:19;;;;;;;2.58;1.15;;;10.70;99.90;;;;;;5010845;28;20033;-58
2023/01/12 15:01:05;;;;;;;1.63;1.52;;;10.70;99.90;;;;;;5011604;28;20029;-53
2023/01/12 15:03:52;;;;;;;1.88;1.40;;;10.80;99.90;;;;;;5011464;28;20026;-51
2023/01/12 15:06:40;;;;;;;1.00;1.00;;;10.70;99.90;;;;;;4996440;28;20018;-57
2023/01/12 15:09:35;;;;;;;1.40;1.30;;;10.70;99.90;;;;;;4997294;28;20030;-53
2023/01/12 15:12:27;;;;;;;1.70;1.55;;;10.80;99.90;;;;;;5010508;28;20026;-51
2023/01/12 15:15:20;;;;;;;3.42;1.48;;;10.70;99.90;;;;;;5010305;28;20101;-53
2023/01/12 15:27:33;;;;;;;1.45;1.33;;;10.80;99.90;;;;;;5014801;28;20049;-53
2023/01/12 15:30:19;;;;;;;2.20;1.10;;;10.80;99.90;;;;;;5017203;28;20399;-50
2023/01/12 15:33:05;;;;;;;3.05;1.50;;;10.80;99.90;;;;;;5021861;28;20037;-51
2023/01/12 15:35:51;;;;;;;1.33;1.23;;;10.80;99.90;;;;;;5031219;28;20116;-54
2023/01/12 15:38:37;;;;;;;2.58;1.60;;;10.80;99.90;;;;;;5026364;28;20109;-52
2023/01/12 15:44:30;;;;;;;2.00;1.35;;;10.80;99.90;;;;;;5033835;28;20030;-56
2023/01/12 15:47:18;;;;;;;1.50;1.40;;;10.90;99.90;;;;;;5020516;28;20030;-48
2023/01/12 15:50:04;;;;;;;1.60;1.20;;;10.80;99.90;;;;;;5020555;28;20556;-48
2023/01/12 15:52:51;;;;;;;3.83;1.63;;;10.80;99.90;;;;;;5019084;28;20113;-57
2023/01/12 15:55:38;;;;;;;3.00;1.50;;;10.90;99.90;;;;;;4999960;28;20026;-50
2023/01/12 15:58:24;;;;;;;1.65;1.55;;;10.80;99.90;;;;;;5012703;28;20425;-56
2023/01/12 16:01:15;;;;;;;3.28;1.80;;;10.90;99.90;;;;;;5029369;28;20777;-57
2023/01/12 16:04:01;;;;;;;2.88;1.67;;;10.90;99.90;;;;;;5031915;28;20033;-55
2023/01/12 16:06:48;;;;;;;1.83;1.45;;;10.90;99.90;;;;;;5017533;28;20036;-56